createdAt,value
2024-01-31T00:00:28.616Z,101408.62
2024-01-31T00:01:32.792Z,101405.94
2024-01-31T00:02:37.792Z,101407.76
2024-01-31T00:03:40.499Z,101408.62
2024-01-31T00:04:43.354Z,101405.94
2024-01-31T00:05:46.213Z,101400.59
2024-01-31T00:06:51.154Z,101398.84
2024-01-31T00:07:54.275Z,101396.17
2024-01-31T00:10:11.919Z,101399.26
2024-01-31T00:11:15.425Z,101390.81
2024-01-31T00:12:18.347Z,101397.06
2024-01-31T00:13:21.162Z,101396.17
2024-01-31T00:14:25.798Z,101395.23
2024-01-31T00:16:40.798Z,101398.33
2024-01-31T00:17:44.526Z,101396.98
2024-01-31T00:18:49.303Z,101398.70
2024-01-31T00:19:53.531Z,101390.68
2024-01-31T00:20:56.452Z,101404.95
2024-01-31T00:21:59.720Z,101402.27
2024-01-31T00:23:04.749Z,101406.70
2024-01-31T00:25:24.564Z,101410.68
2024-01-31T00:26:27.692Z,101403.95
2024-01-31T00:27:30.689Z,101409.30
2024-01-31T00:28:33.422Z,101409.30
2024-01-31T00:29:39.233Z,101401.28
2024-01-31T00:30:42.098Z,101403.06
2024-01-31T00:31:45.235Z,101407.48
2024-01-31T00:32:49.096Z,101410.16
2024-01-31T00:33:55.965Z,101407.48
2024-01-31T00:34:58.798Z,101410.16
2024-01-31T00:36:02.018Z,101404.81
2024-01-31T00:37:05.375Z,101404.81
2024-01-31T00:38:08.649Z,101403.00
2024-01-31T00:39:13.271Z,101396.79
2024-01-31T00:40:17.109Z,101401.28
2024-01-31T00:41:21.108Z,101400.39
2024-01-31T00:42:25.081Z,101398.60
2024-01-31T00:43:28.150Z,101393.25
2024-01-31T00:44:31.133Z,101390.64
2024-01-31T00:45:34.520Z,101393.32
2024-01-31T00:46:42.723Z,101390.58
2024-01-31T00:47:46.222Z,101398.67
2024-01-31T00:48:49.289Z,101392.43
2024-01-31T00:49:52.541Z,101396.85
2024-01-31T00:50:55.798Z,101390.64
2024-01-31T00:51:59.086Z,101396.92
2024-01-31T00:53:02.003Z,101387.08
2024-01-31T00:54:04.922Z,101388.90
2024-01-31T00:55:07.985Z,101383.55
2024-01-31T00:56:11.322Z,101379.98
2024-01-31T00:57:15.182Z,101381.73
2024-01-31T00:58:26.730Z,101395.11
2024-01-31T00:59:29.665Z,101390.68
2024-01-31T01:00:32.697Z,101394.25
2024-01-31T01:01:36.559Z,101389.75
2024-01-31T01:02:42.420Z,101391.57
2024-01-31T01:03:46.339Z,101379.98
2024-01-31T01:04:50.066Z,101385.33
2024-01-31T01:05:53.713Z,101384.41
2024-01-31T01:06:56.923Z,101378.20
2024-01-31T01:08:01.066Z,101379.95
2024-01-31T01:09:04.508Z,101373.63
2024-01-31T01:11:26.031Z,101372.36
2024-01-31T01:12:28.650Z,101369.17
2024-01-31T01:13:33.314Z,101369.17
2024-01-31T01:14:36.113Z,101364.75
2024-01-31T01:15:38.851Z,101366.50
2024-01-31T01:16:41.850Z,101362.94
2024-01-31T01:17:44.801Z,101362.94
2024-01-31T01:18:47.732Z,101362.08
2024-01-31T01:19:50.555Z,101360.26
2024-01-31T01:20:53.463Z,101352.23
2024-01-31T01:21:57.475Z,101357.58
2024-01-31T01:23:00.245Z,101354.98
2024-01-31T01:24:05.023Z,101352.30
2024-01-31T01:25:08.429Z,101351.44
2024-01-31T01:26:13.469Z,101344.27
2024-01-31T01:27:18.208Z,101347.88
2024-01-31T01:28:22.489Z,101347.88
2024-01-31T01:29:25.300Z,101345.20
2024-01-31T01:30:28.737Z,101345.20
2024-01-31T01:31:31.536Z,101346.16
2024-01-31T01:32:34.995Z,101339.06
2024-01-31T01:33:38.071Z,101338.20
2024-01-31T01:34:41.305Z,101342.59
2024-01-31T01:35:45.063Z,101340.88
2024-01-31T01:36:49.008Z,101336.39
2024-01-31T01:37:52.236Z,101338.14
2024-01-31T01:38:56.071Z,101333.72
2024-01-31T01:39:59.048Z,101337.31
2024-01-31T01:41:03.249Z,101333.78
2024-01-31T01:42:07.040Z,101334.64
2024-01-31T01:43:19.888Z,101334.64
2024-01-31T01:44:22.842Z,101328.44
2024-01-31T01:45:27.470Z,101325.76
2024-01-31T01:46:30.382Z,101328.44
2024-01-31T01:47:34.011Z,101327.55
2024-01-31T01:48:37.803Z,101329.36
2024-01-31T01:49:41.247Z,101325.83
2024-01-31T01:50:45.649Z,101324.02
2024-01-31T01:51:48.496Z,101322.27
2024-01-31T01:52:52.566Z,101323.16
2024-01-31T01:53:55.926Z,101326.69
2024-01-31T01:54:58.554Z,101317.80
2024-01-31T01:56:03.317Z,101329.36
2024-01-31T01:57:08.296Z,101322.27
2024-01-31T01:58:11.253Z,101315.20
2024-01-31T01:59:14.055Z,101319.59
2024-01-31T02:00:17.544Z,101323.16
2024-01-31T02:01:21.389Z,101324.02
2024-01-31T02:02:25.646Z,101328.50
2024-01-31T02:03:31.484Z,101325.83
2024-01-31T02:04:35.275Z,101323.16
2024-01-31T02:05:39.709Z,101326.69
2024-01-31T02:06:44.618Z,101332.03
2024-01-31T02:07:47.545Z,101330.22
2024-01-31T02:08:51.322Z,101333.85
2024-01-31T02:09:54.261Z,101329.36
2024-01-31T02:10:58.227Z,101333.85
2024-01-31T02:12:01.052Z,101329.43
2024-01-31T02:13:04.567Z,101330.28
2024-01-31T02:14:07.432Z,101325.83
2024-01-31T02:15:10.531Z,101330.28
2024-01-31T02:16:13.997Z,101322.27
2024-01-31T02:17:16.903Z,101328.50
2024-01-31T02:18:20.255Z,101331.17
2024-01-31T02:19:24.091Z,101327.61
2024-01-31T02:20:29.330Z,101324.02
2024-01-31T02:21:32.089Z,101326.69
2024-01-31T02:22:35.200Z,101332.96
2024-01-31T02:23:38.830Z,101325.83
2024-01-31T02:24:41.638Z,101328.50
2024-01-31T02:25:45.656Z,101329.36
2024-01-31T02:26:48.759Z,101331.17
2024-01-31T02:27:52.468Z,101331.17
2024-01-31T02:28:56.399Z,101326.69
2024-01-31T02:29:59.272Z,101317.73
2024-01-31T02:31:02.923Z,101316.84
2024-01-31T02:32:07.186Z,101324.87
2024-01-31T02:33:10.315Z,101322.19
2024-01-31T02:34:13.483Z,101318.66
2024-01-31T02:35:17.277Z,101324.87
2024-01-31T02:36:20.395Z,101323.16
2024-01-31T02:37:24.573Z,101315.98
2024-01-31T02:38:27.475Z,101315.98
2024-01-31T02:41:06.677Z,101316.39
2024-01-31T02:42:09.387Z,101309.70
2024-01-31T02:43:12.133Z,101309.70
2024-01-31T02:44:15.953Z,101313.23
2024-01-31T02:45:19.145Z,101314.16
2024-01-31T02:46:22.939Z,101315.06
2024-01-31T02:47:26.006Z,101316.84
2024-01-31T02:48:28.718Z,101311.49
2024-01-31T02:49:32.568Z,101313.23
2024-01-31T02:50:35.764Z,101316.84
2024-01-31T02:51:40.282Z,101320.41
2024-01-31T02:52:43.970Z,101307.89
2024-01-31T02:53:46.784Z,101317.73
2024-01-31T02:54:52.209Z,101315.91
2024-01-31T02:55:55.063Z,101307.03
2024-01-31T02:56:58.004Z,101311.49
2024-01-31T02:58:00.852Z,101303.47
2024-01-31T02:59:04.991Z,101310.56
2024-01-31T03:00:12.399Z,101305.22
2024-01-31T03:01:15.109Z,101304.36
2024-01-31T03:02:18.597Z,101303.47
2024-01-31T03:03:22.429Z,101299.01
2024-01-31T03:04:26.126Z,101295.44
2024-01-31T03:05:29.423Z,101295.44
2024-01-31T03:06:32.814Z,101294.59
2024-01-31T03:07:36.632Z,101303.47
2024-01-31T03:08:39.849Z,101299.94
2024-01-31T03:09:44.047Z,101303.47
2024-01-31T03:10:47.628Z,101301.68
2024-01-31T03:11:50.421Z,101298.12
2024-01-31T03:12:54.247Z,101302.61
2024-01-31T03:13:59.496Z,101299.01
2024-01-31T03:15:03.089Z,101290.09
2024-01-31T03:16:08.148Z,101290.09
2024-01-31T03:17:11.270Z,101285.63
2024-01-31T03:18:14.495Z,101285.63
2024-01-31T03:19:18.395Z,101283.81
2024-01-31T03:20:22.144Z,101282.95
2024-01-31T03:21:25.938Z,101289.16
2024-01-31T03:22:29.752Z,101290.09
2024-01-31T03:23:33.360Z,101291.84
2024-01-31T03:24:36.988Z,101286.48
2024-01-31T03:25:40.008Z,101288.31
2024-01-31T03:26:43.297Z,101289.16
2024-01-31T03:27:46.539Z,101283.81
2024-01-31T03:28:49.408Z,101277.61
2024-01-31T03:29:53.163Z,101287.38
2024-01-31T03:30:56.742Z,101284.70
2024-01-31T03:32:02.757Z,101283.81
2024-01-31T03:33:05.956Z,101287.38
2024-01-31T03:34:09.645Z,101275.79
2024-01-31T03:35:13.845Z,101281.06
2024-01-31T03:36:20.898Z,101279.36
2024-01-31T03:37:23.690Z,101277.53
2024-01-31T03:38:26.259Z,101273.11
2024-01-31T03:39:29.126Z,101272.26
2024-01-31T03:40:32.244Z,101266.91
2024-01-31T03:41:36.010Z,101261.56
2024-01-31T03:42:39.519Z,101275.79
2024-01-31T03:43:44.788Z,101273.11
2024-01-31T03:44:48.345Z,101276.68
2024-01-31T03:45:51.177Z,101277.61
2024-01-31T03:46:54.581Z,101266.91
2024-01-31T03:47:58.383Z,101276.68
2024-01-31T03:49:02.481Z,101277.61
2024-01-31T03:50:06.894Z,101277.61
2024-01-31T03:52:33.988Z,101271.80
2024-01-31T03:53:37.102Z,101279.39
2024-01-31T03:54:40.162Z,101272.33
2024-01-31T03:55:44.573Z,101261.63
2024-01-31T03:56:48.713Z,101264.30
2024-01-31T03:57:52.340Z,101265.23
2024-01-31T03:58:56.161Z,101266.98
2024-01-31T04:00:02.024Z,101264.37
2024-01-31T04:01:07.518Z,101265.23
2024-01-31T04:02:11.694Z,101259.88
2024-01-31T04:03:15.495Z,101265.23
2024-01-31T04:04:18.978Z,101259.02
2024-01-31T04:05:21.952Z,101243.30
2024-01-31T04:06:26.466Z,101243.30
2024-01-31T04:07:30.189Z,101258.14
2024-01-31T04:08:33.422Z,101248.39
2024-01-31T04:09:36.421Z,101255.45
2024-01-31T04:10:41.533Z,101253.75
2024-01-31T04:11:44.257Z,101253.75
2024-01-31T04:12:48.476Z,101254.60
2024-01-31T04:13:51.000Z,101250.18
2024-01-31T04:14:54.735Z,101248.39
2024-01-31T04:15:58.455Z,101252.00
2024-01-31T04:17:01.317Z,101245.76
2024-01-31T04:18:06.397Z,101249.33
2024-01-31T04:19:09.766Z,101246.65
2024-01-31T04:20:14.487Z,101247.50
2024-01-31T04:21:24.552Z,101246.65
2024-01-31T04:22:27.376Z,101246.65
2024-01-31T04:23:30.237Z,101256.42
2024-01-31T04:24:33.506Z,101248.39
2024-01-31T04:25:37.639Z,101247.50
2024-01-31T04:27:59.245Z,101247.04
2024-01-31T04:29:01.787Z,101253.67
2024-01-31T04:30:07.736Z,101258.14
2024-01-31T04:31:17.349Z,101255.45
2024-01-31T04:32:20.059Z,101249.19
2024-01-31T04:33:23.486Z,101257.20
2024-01-31T04:34:26.489Z,101254.46
2024-01-31T04:35:30.012Z,101254.46
2024-01-31T04:36:33.389Z,101252.64
2024-01-31T04:37:37.588Z,101258.88
2024-01-31T04:38:40.615Z,101251.78
2024-01-31T04:39:43.747Z,101255.31
2024-01-31T04:40:47.116Z,101252.64
2024-01-31T04:41:49.989Z,101244.83
2024-01-31T04:42:54.528Z,101244.83
2024-01-31T04:43:58.701Z,101258.88
2024-01-31T04:45:01.751Z,101250.86
2024-01-31T04:46:05.313Z,101241.91
2024-01-31T04:47:09.209Z,101241.91
2024-01-31T04:48:13.362Z,101256.14
2024-01-31T04:49:16.957Z,101247.44
2024-01-31T04:50:24.905Z,101247.44
2024-01-31T04:51:28.588Z,101255.28
2024-01-31T04:52:31.618Z,101254.39
2024-01-31T04:53:34.331Z,101253.53
2024-01-31T04:54:40.801Z,101254.39
2024-01-31T04:55:45.125Z,101256.20
2024-01-31T04:56:48.243Z,101254.46
2024-01-31T04:57:50.963Z,101257.14
2024-01-31T04:58:53.708Z,101250.04
2024-01-31T04:59:57.884Z,101247.44
2024-01-31T05:01:02.053Z,101249.33
2024-01-31T05:02:05.987Z,101251.07
2024-01-31T05:03:08.805Z,101244.90
2024-01-31T05:04:11.889Z,101238.70
2024-01-31T05:05:15.443Z,101238.77
2024-01-31T05:06:19.529Z,101240.48
2024-01-31T05:07:23.604Z,101240.48
2024-01-31T05:08:29.517Z,101234.27
2024-01-31T05:09:32.660Z,101236.02
2024-01-31T05:10:36.486Z,101240.41
2024-01-31T05:11:39.304Z,101239.48
2024-01-31T05:12:42.161Z,101240.37
2024-01-31T05:14:58.226Z,101239.09
2024-01-31T05:17:15.289Z,101231.92
2024-01-31T05:18:18.545Z,101235.02
2024-01-31T05:19:24.926Z,101229.60
2024-01-31T05:20:30.929Z,101237.55
2024-01-31T05:21:33.566Z,101235.66
2024-01-31T05:22:36.234Z,101234.73
2024-01-31T05:23:41.303Z,101241.83
2024-01-31T05:24:44.363Z,101233.80
2024-01-31T05:25:48.639Z,101234.66
2024-01-31T05:26:51.745Z,101236.48
2024-01-31T05:27:55.456Z,101231.13
2024-01-31T05:28:59.159Z,101234.66
2024-01-31T05:30:05.117Z,101233.80
2024-01-31T05:31:07.794Z,101231.98
2024-01-31T05:32:11.180Z,101227.57
2024-01-31T05:33:16.506Z,101230.24
2024-01-31T05:34:23.146Z,101233.80
2024-01-31T05:35:26.957Z,101229.31
2024-01-31T05:36:31.361Z,101229.31
2024-01-31T05:37:35.777Z,101233.80
2024-01-31T05:38:41.792Z,101229.31
2024-01-31T05:39:45.198Z,101232.84
2024-01-31T05:40:48.157Z,101228.45
2024-01-31T05:41:51.518Z,101231.98
2024-01-31T05:42:54.295Z,101220.44
2024-01-31T05:43:58.375Z,101221.29
2024-01-31T05:45:01.174Z,101217.76
2024-01-31T05:47:16.401Z,101220.00
2024-01-31T05:48:20.411Z,101218.76
2024-01-31T05:49:23.245Z,101214.34
2024-01-31T05:50:26.268Z,101209.06
2024-01-31T05:51:31.359Z,101215.34
2024-01-31T05:52:35.932Z,101213.63
2024-01-31T05:53:40.995Z,101216.30
2024-01-31T05:54:44.895Z,101221.65
2024-01-31T05:55:47.817Z,101218.16
2024-01-31T05:56:54.905Z,101223.58
2024-01-31T05:57:57.612Z,101217.41
2024-01-31T05:59:00.447Z,101217.55
2024-01-31T06:00:07.214Z,101225.64
2024-01-31T06:01:11.997Z,101218.62
2024-01-31T06:02:16.733Z,101220.44
2024-01-31T06:03:21.476Z,101219.62
2024-01-31T06:04:25.854Z,101226.00
2024-01-31T06:05:29.152Z,101220.69
2024-01-31T06:06:32.666Z,101227.92
2024-01-31T06:07:37.158Z,101217.30
2024-01-31T06:08:41.005Z,101213.80
2024-01-31T06:09:43.893Z,101216.55
2024-01-31T06:12:04.924Z,101208.20
2024-01-31T06:13:08.001Z,101219.36
2024-01-31T06:14:11.304Z,101208.73
2024-01-31T06:15:14.326Z,101211.41
2024-01-31T06:16:17.271Z,101212.34
2024-01-31T06:17:20.326Z,101211.48
2024-01-31T06:19:38.761Z,101215.63
2024-01-31T06:20:43.785Z,101214.30
2024-01-31T06:21:48.637Z,101223.23
2024-01-31T06:22:52.388Z,101217.03
2024-01-31T06:23:56.180Z,101226.84
2024-01-31T06:26:12.962Z,101217.61
2024-01-31T06:27:15.685Z,101218.95
2024-01-31T06:28:18.471Z,101224.30
2024-01-31T06:29:22.362Z,101224.30
2024-01-31T06:30:28.902Z,101215.42
2024-01-31T06:31:33.665Z,101223.45
2024-01-31T06:32:38.570Z,101224.38
2024-01-31T06:33:42.177Z,101218.09
2024-01-31T06:35:58.633Z,101210.59
2024-01-31T06:37:02.414Z,101218.14
2024-01-31T06:38:05.961Z,101214.60
2024-01-31T06:39:11.131Z,101223.55
2024-01-31T06:40:15.440Z,101215.53
2024-01-31T06:41:19.143Z,101210.25
2024-01-31T06:42:23.501Z,101211.14
2024-01-31T06:43:26.909Z,101217.41
2024-01-31T06:44:31.219Z,101216.53
2024-01-31T06:45:34.030Z,101220.09
2024-01-31T06:46:36.894Z,101214.81
2024-01-31T06:47:40.583Z,101205.91
2024-01-31T06:48:44.533Z,101211.31
2024-01-31T06:49:47.490Z,101216.66
2024-01-31T06:50:50.987Z,101215.80
2024-01-31T06:51:55.016Z,101222.97
2024-01-31T06:52:58.980Z,101219.47
2024-01-31T06:54:02.153Z,101210.53
2024-01-31T06:55:05.610Z,101216.80
2024-01-31T06:56:13.018Z,101216.86
2024-01-31T06:58:29.485Z,101214.67
2024-01-31T06:59:33.671Z,101211.59
2024-01-31T07:00:37.550Z,101207.17
2024-01-31T07:01:40.375Z,101211.59
2024-01-31T07:02:46.140Z,101213.44
2024-01-31T07:03:50.096Z,101213.44
2024-01-31T07:04:53.279Z,101208.09
2024-01-31T07:05:57.435Z,101206.38
2024-01-31T07:07:02.530Z,101203.71
2024-01-31T07:08:06.449Z,101203.71
2024-01-31T07:09:10.279Z,101202.82
2024-01-31T07:10:13.558Z,101203.71
2024-01-31T07:11:16.658Z,101216.18
2024-01-31T07:12:19.798Z,101200.19
2024-01-31T07:13:24.430Z,101200.19
2024-01-31T07:14:27.792Z,101202.00
2024-01-31T07:15:31.419Z,101202.00
2024-01-31T07:16:37.114Z,101198.44
2024-01-31T07:17:39.873Z,101191.38
2024-01-31T07:18:43.852Z,101200.25
2024-01-31T07:19:47.407Z,101196.72
2024-01-31T07:20:51.850Z,101194.05
2024-01-31T07:21:54.648Z,101193.16
2024-01-31T07:22:58.497Z,101194.05
2024-01-31T07:24:07.252Z,101196.72
2024-01-31T07:25:10.539Z,101194.12
2024-01-31T07:26:23.018Z,101195.90
2024-01-31T07:27:27.461Z,101192.30
2024-01-31T07:28:33.388Z,101196.79
2024-01-31T07:29:37.181Z,101187.95
2024-01-31T07:30:40.228Z,101189.77
2024-01-31T07:31:43.105Z,101191.48
2024-01-31T07:32:46.558Z,101193.30
2024-01-31T07:33:50.630Z,101191.55
2024-01-31T07:34:55.265Z,101188.88
2024-01-31T07:35:58.882Z,101195.11
2024-01-31T07:37:01.756Z,101185.34
2024-01-31T07:38:05.543Z,101189.83
2024-01-31T07:39:09.728Z,101189.87
2024-01-31T07:40:14.373Z,101188.09
2024-01-31T07:41:18.133Z,101189.87
2024-01-31T07:42:21.194Z,101199.63
2024-01-31T07:43:24.712Z,101192.54
2024-01-31T07:44:31.056Z,101187.20
2024-01-31T07:45:33.106Z,101196.10
2024-01-31T07:46:37.073Z,101197.03
2024-01-31T07:47:41.515Z,101194.36
2024-01-31T07:48:44.952Z,101197.88
2024-01-31T07:49:48.009Z,101199.70
2024-01-31T07:50:50.834Z,101193.50
2024-01-31T07:51:58.145Z,101188.16
2024-01-31T07:53:01.025Z,101187.27
2024-01-31T07:54:04.961Z,101198.84
2024-01-31T07:55:09.777Z,101201.52
2024-01-31T07:56:13.571Z,101194.42
2024-01-31T07:57:16.383Z,101200.63
2024-01-31T07:58:19.223Z,101191.95
2024-01-31T07:59:23.225Z,101191.95
2024-01-31T08:00:27.781Z,101206.86
2024-01-31T08:01:31.082Z,101200.63
2024-01-31T08:02:33.923Z,101202.44
2024-01-31T08:03:38.537Z,101202.44
2024-01-31T08:04:43.288Z,101198.91
2024-01-31T08:05:46.142Z,101208.70
2024-01-31T08:06:49.048Z,101206.03
2024-01-31T08:07:51.922Z,101206.03
2024-01-31T08:08:54.651Z,101209.59
2024-01-31T08:09:58.323Z,101206.03
2024-01-31T08:11:04.517Z,101203.36
2024-01-31T08:12:10.201Z,101206.92
2024-01-31T08:13:13.580Z,101203.36
2024-01-31T08:14:16.912Z,101190.07
2024-01-31T08:15:20.035Z,101197.16
2024-01-31T08:16:23.042Z,101199.83
2024-01-31T08:17:27.748Z,101198.02
2024-01-31T08:18:31.807Z,101189.15
2024-01-31T08:19:35.674Z,101197.16
2024-01-31T08:20:39.048Z,101194.48
2024-01-31T08:21:42.396Z,101197.16
2024-01-31T08:22:45.185Z,101192.74
2024-01-31T08:23:48.660Z,101190.07
2024-01-31T08:24:52.664Z,101182.26
2024-01-31T08:25:57.697Z,101182.26
2024-01-31T08:27:00.617Z,101186.55
2024-01-31T08:28:06.140Z,101195.41
2024-01-31T08:29:15.762Z,101187.40
2024-01-31T08:30:19.486Z,101186.55
2024-01-31T08:31:22.813Z,101189.22
2024-01-31T08:32:25.959Z,101186.55
2024-01-31T08:33:28.738Z,101185.59
2024-01-31T08:34:33.775Z,101181.20
2024-01-31T08:35:36.846Z,101180.24
2024-01-31T08:36:40.182Z,101182.06
2024-01-31T08:37:43.405Z,101188.26
2024-01-31T08:38:46.205Z,101177.64
2024-01-31T08:39:48.952Z,101173.19
2024-01-31T08:40:52.911Z,101175.86
2024-01-31T08:41:56.271Z,101181.20
2024-01-31T08:43:00.072Z,101181.20
2024-01-31T08:44:04.440Z,101186.55
2024-01-31T08:45:08.968Z,101186.55
2024-01-31T08:46:15.263Z,101183.88
2024-01-31T08:47:19.768Z,101186.55
2024-01-31T08:48:22.645Z,101181.20
2024-01-31T08:49:26.243Z,101181.20
2024-01-31T08:50:29.766Z,101180.31
2024-01-31T08:51:33.754Z,101178.53
2024-01-31T08:52:36.625Z,101168.77
2024-01-31T08:53:39.839Z,101174.11
2024-01-31T08:54:43.935Z,101172.36
2024-01-31T08:55:58.292Z,101172.36
2024-01-31T08:56:53.773Z,101175.03
2024-01-31T08:57:56.501Z,101167.98
2024-01-31T08:58:59.479Z,101170.58
2024-01-31T09:01:19.948Z,101168.39
2024-01-31T09:02:23.046Z,101161.67
2024-01-31T09:03:27.340Z,101158.15
2024-01-31T09:04:30.162Z,101156.34
2024-01-31T09:05:33.271Z,101159.00
2024-01-31T09:06:36.365Z,101155.48
2024-01-31T09:07:39.672Z,101154.55
2024-01-31T09:08:43.166Z,101149.20
2024-01-31T09:09:46.789Z,101142.13
2024-01-31T09:10:49.882Z,101140.30
2024-01-31T09:11:54.138Z,101151.88
2024-01-31T09:12:57.400Z,101142.98
2024-01-31T09:14:00.675Z,101145.65
2024-01-31T09:15:05.098Z,101145.65
2024-01-31T09:16:09.715Z,101130.52
2024-01-31T09:17:13.362Z,101133.11
2024-01-31T09:18:16.405Z,101123.56
2024-01-31T09:19:19.929Z,101123.56
2024-01-31T09:20:25.041Z,101129.55
2024-01-31T09:21:29.031Z,101133.11
2024-01-31T09:22:32.708Z,101127.77
2024-01-31T09:23:35.839Z,101121.53
2024-01-31T09:24:38.844Z,101130.44
2024-01-31T09:25:41.621Z,101121.53
2024-01-31T09:26:45.924Z,101116.20
2024-01-31T09:27:50.226Z,101117.08
2024-01-31T09:28:53.127Z,101114.41
2024-01-31T09:29:55.884Z,101114.41
2024-01-31T09:30:59.060Z,101114.41
2024-01-31T09:32:03.458Z,101117.94
2024-01-31T09:33:07.318Z,101113.52
2024-01-31T09:34:10.536Z,101109.92
2024-01-31T09:35:13.685Z,101110.85
2024-01-31T09:36:19.897Z,101120.68
2024-01-31T09:37:23.261Z,101109.07
2024-01-31T09:38:27.350Z,101099.31
2024-01-31T09:39:31.448Z,101108.18
2024-01-31T09:40:35.189Z,101105.44
2024-01-31T09:41:40.081Z,101098.38
2024-01-31T09:42:45.928Z,101092.15
2024-01-31T09:43:48.785Z,101083.21
2024-01-31T09:44:51.581Z,101085.03
2024-01-31T09:45:54.463Z,101085.88
2024-01-31T09:46:58.163Z,101079.69
2024-01-31T09:48:01.322Z,101077.02
2024-01-31T09:49:04.250Z,101080.54
2024-01-31T09:50:12.971Z,101079.69
2024-01-31T09:51:15.159Z,101070.78
2024-01-31T09:52:19.778Z,101076.12
2024-01-31T09:53:23.724Z,101071.67
2024-01-31T09:55:40.756Z,101068.58
2024-01-31T09:56:44.464Z,101070.78
2024-01-31T09:57:47.410Z,101069.00
2024-01-31T09:58:51.332Z,101069.85
2024-01-31T09:59:56.967Z,101060.98
2024-01-31T10:01:09.862Z,101069.85
2024-01-31T10:02:09.104Z,101068.04
2024-01-31T10:03:11.984Z,101063.66
2024-01-31T10:04:16.542Z,101052.08
2024-01-31T10:05:20.060Z,101057.42
2024-01-31T10:07:41.340Z,101051.61
2024-01-31T10:08:45.295Z,101052.97
2024-01-31T10:09:48.140Z,101052.97
2024-01-31T10:10:51.471Z,101053.83
2024-01-31T10:11:54.447Z,101050.30
2024-01-31T10:12:57.832Z,101054.68
2024-01-31T10:14:02.209Z,101052.01
2024-01-31T10:15:11.411Z,101056.50
2024-01-31T10:16:16.865Z,101051.16
2024-01-31T10:17:20.912Z,101051.16
2024-01-31T10:18:26.614Z,101049.34
2024-01-31T10:19:31.743Z,101052.01
2024-01-31T10:20:34.612Z,101046.67
2024-01-31T10:21:37.563Z,101046.67
2024-01-31T10:22:42.165Z,101045.81
2024-01-31T10:23:47.064Z,101043.99
2024-01-31T10:24:52.514Z,101043.99
2024-01-31T10:25:56.370Z,101046.67
2024-01-31T10:26:59.443Z,101042.28
2024-01-31T10:28:06.365Z,101043.99
2024-01-31T10:29:11.136Z,101035.12
2024-01-31T10:30:16.456Z,101045.73
2024-01-31T10:31:21.177Z,101033.31
2024-01-31T10:32:24.055Z,101036.87
2024-01-31T10:33:27.149Z,101033.31
2024-01-31T10:34:36.736Z,101026.19
2024-01-31T10:37:57.862Z,101020.37
2024-01-31T10:39:01.394Z,101016.35
2024-01-31T10:40:10.213Z,101023.44
2024-01-31T10:41:15.968Z,101017.24
2024-01-31T10:42:18.626Z,101022.58
2024-01-31T10:43:23.118Z,101017.24
2024-01-31T10:44:25.989Z,101017.17
2024-01-31T10:45:30.499Z,101012.75
2024-01-31T10:46:33.583Z,101016.35
2024-01-31T10:47:37.963Z,101013.68
2024-01-31T10:48:42.458Z,101006.55
2024-01-31T10:49:46.598Z,101016.35
2024-01-31T10:50:52.547Z,101008.34
2024-01-31T10:51:56.269Z,101008.34
2024-01-31T10:54:13.490Z,101015.95
2024-01-31T10:55:17.055Z,101012.89
2024-01-31T10:56:21.607Z,101012.01
2024-01-31T10:57:24.800Z,101004.95
2024-01-31T10:58:28.100Z,101006.73
2024-01-31T10:59:38.741Z,101006.81
2024-01-31T11:00:49.494Z,101000.61
2024-01-31T11:01:59.541Z,101000.61
2024-01-31T11:03:03.150Z,100997.05
2024-01-31T11:04:09.524Z,100998.86
2024-01-31T11:05:14.860Z,100997.13
2024-01-31T11:06:18.344Z,100998.02
2024-01-31T11:07:23.317Z,100992.67
2024-01-31T11:08:27.586Z,100997.13
2024-01-31T11:09:32.045Z,100991.78
2024-01-31T11:10:37.162Z,100989.11
2024-01-31T11:11:39.914Z,100991.78
2024-01-31T11:12:45.165Z,100989.18
2024-01-31T11:13:48.301Z,100980.23
2024-01-31T11:14:51.387Z,100979.38
2024-01-31T11:15:54.148Z,100971.38
2024-01-31T11:17:10.300Z,100980.23
2024-01-31T11:18:15.950Z,100977.57
2024-01-31T11:19:20.040Z,100973.08
2024-01-31T11:20:23.649Z,100978.42
2024-01-31T11:21:27.163Z,100976.64
2024-01-31T11:22:30.128Z,100978.42
2024-01-31T11:23:35.949Z,100975.75
2024-01-31T11:24:50.087Z,100972.16
2024-01-31T11:25:52.823Z,100975.75
2024-01-31T11:26:59.272Z,100968.63
2024-01-31T11:28:03.601Z,100972.16
2024-01-31T11:29:10.487Z,100959.73
2024-01-31T11:30:16.828Z,100971.30
2024-01-31T11:31:20.202Z,100961.55
2024-01-31T11:32:23.482Z,100954.39
2024-01-31T11:33:26.596Z,100958.87
2024-01-31T11:34:29.590Z,100952.67
2024-01-31T11:35:33.960Z,100959.80
2024-01-31T11:36:36.883Z,100954.45
2024-01-31T11:37:41.320Z,100952.71
2024-01-31T11:38:45.110Z,100957.20
2024-01-31T11:39:47.828Z,100951.00
2024-01-31T11:40:51.471Z,100955.39
2024-01-31T11:41:55.910Z,100950.00
2024-01-31T11:42:58.916Z,100953.60
2024-01-31T11:44:01.880Z,100951.78
2024-01-31T11:45:05.908Z,100952.71
2024-01-31T11:46:08.972Z,100941.10
2024-01-31T11:47:12.315Z,100944.70
2024-01-31T11:48:15.415Z,100938.50
2024-01-31T11:49:18.980Z,100948.33
2024-01-31T11:50:24.040Z,100941.25
2024-01-31T11:51:28.997Z,100938.58
2024-01-31T11:52:32.702Z,100945.73
2024-01-31T11:53:35.326Z,100940.39
2024-01-31T11:54:40.270Z,100951.08
2024-01-31T11:55:43.320Z,100947.52
2024-01-31T11:56:46.483Z,100947.52
2024-01-31T11:59:05.349Z,100939.95
2024-01-31T12:00:10.427Z,100941.32
2024-01-31T12:01:17.144Z,100940.44
2024-01-31T12:02:20.057Z,100947.52
2024-01-31T12:03:24.096Z,100944.92
2024-01-31T12:04:27.556Z,100934.23
2024-01-31T12:05:31.899Z,100943.10
2024-01-31T12:06:36.930Z,100943.10
2024-01-31T12:07:39.819Z,100945.77
2024-01-31T12:08:44.458Z,100932.42
2024-01-31T12:09:47.947Z,100934.23
2024-01-31T12:10:50.835Z,100936.91
2024-01-31T12:11:54.526Z,100939.58
2024-01-31T12:13:03.331Z,100936.91
2024-01-31T12:14:06.356Z,100937.83
2024-01-31T12:16:24.226Z,100933.75
2024-01-31T12:17:28.060Z,100935.98
2024-01-31T12:18:32.650Z,100932.42
2024-01-31T12:19:36.425Z,100932.42
2024-01-31T12:20:40.450Z,100932.37
2024-01-31T12:21:43.456Z,100933.23
2024-01-31T12:22:46.344Z,100925.22
2024-01-31T12:23:50.061Z,100925.15
2024-01-31T12:24:54.085Z,100922.48
2024-01-31T12:25:57.588Z,100927.82
2024-01-31T12:27:00.772Z,100930.42
2024-01-31T12:28:04.821Z,100933.98
2024-01-31T12:29:09.208Z,100926.00
2024-01-31T12:30:14.136Z,100931.34
2024-01-31T12:31:17.952Z,100926.97
2024-01-31T12:32:20.776Z,100928.75
2024-01-31T12:33:24.017Z,100924.37
2024-01-31T12:34:27.346Z,100929.70
2024-01-31T12:35:30.091Z,100927.08
2024-01-31T12:36:34.321Z,100921.73
2024-01-31T12:37:39.320Z,100925.37
2024-01-31T12:38:42.557Z,100924.48